createdAt,value
2023-04-25T00:02:37.592Z,7.30
2023-04-25T00:05:27.206Z,7.20
2023-04-25T00:08:16.106Z,7.10
2023-04-25T00:11:01.648Z,7.10
2023-04-25T00:13:47.581Z,7.00
2023-04-25T00:16:35.079Z,7.00
2023-04-25T00:19:20.663Z,6.90
2023-04-25T00:22:06.769Z,6.90
2023-04-25T00:24:54.378Z,6.80
2023-04-25T00:27:40.256Z,6.80
2023-04-25T00:30:25.973Z,6.80
2023-04-25T00:33:11.567Z,6.70
2023-04-25T00:35:57.508Z,6.60
2023-04-25T00:38:43.009Z,6.60
2023-04-25T00:41:30.885Z,6.60
2023-04-25T00:44:18.034Z,6.60
2023-04-25T00:47:03.507Z,6.60
2023-04-25T00:49:48.699Z,6.60
2023-04-25T00:52:34.692Z,6.70
2023-04-25T00:55:21.227Z,6.70
2023-04-25T00:58:07.001Z,6.80
2023-04-25T01:00:59.540Z,6.90
2023-04-25T01:03:47.720Z,7.00
2023-04-25T01:06:33.880Z,7.00
2023-04-25T01:09:21.580Z,7.00
2023-04-25T01:12:10.292Z,7.00
2023-04-25T01:14:56.573Z,7.00
2023-04-25T01:17:42.635Z,6.90
2023-04-25T01:20:29.704Z,6.80
2023-04-25T01:23:16.456Z,6.80
2023-04-25T01:26:03.448Z,6.70
2023-04-25T01:28:50.243Z,6.60
2023-04-25T01:31:36.217Z,6.60
2023-04-25T01:34:22.543Z,6.60
2023-04-25T01:37:08.059Z,6.50
2023-04-25T01:39:53.689Z,6.50
2023-04-25T01:42:42.364Z,6.40
2023-04-25T01:45:27.968Z,6.40
2023-04-25T01:48:15.252Z,6.30
2023-04-25T01:51:02.573Z,6.30
2023-04-25T01:53:49.135Z,6.20
2023-04-25T01:56:38.866Z,6.20
2023-04-25T01:59:26.568Z,6.20
2023-04-25T02:02:32.541Z,6.20
2023-04-25T02:05:18.670Z,6.20
2023-04-25T02:08:09.496Z,6.20
2023-04-25T02:10:55.585Z,6.30
2023-04-25T02:13:43.648Z,6.30
2023-04-25T02:16:54.882Z,6.50
2023-04-25T02:19:40.598Z,6.60
2023-04-25T02:22:27.837Z,6.70
2023-04-25T02:25:14.097Z,6.70
2023-04-25T02:28:00.333Z,6.80
2023-04-25T02:30:46.135Z,6.80
2023-04-25T02:33:31.644Z,6.90
2023-04-25T02:36:17.239Z,7.00
2023-04-25T02:39:04.155Z,7.00
2023-04-25T02:41:49.558Z,7.10
2023-04-25T02:44:35.131Z,7.20
2023-04-25T02:47:20.820Z,7.20
2023-04-25T02:50:06.800Z,7.30
2023-04-25T02:52:52.350Z,7.30
2023-04-25T02:55:43.854Z,7.30
2023-04-25T02:58:29.050Z,7.40
2023-04-25T03:01:14.612Z,7.40
2023-04-25T03:04:00.032Z,7.40
2023-04-25T03:06:46.395Z,7.40
2023-04-25T03:09:37.646Z,7.40
2023-04-25T03:12:23.230Z,7.50
2023-04-25T03:15:09.472Z,7.50
2023-04-25T03:17:54.990Z,7.50
2023-04-25T03:20:42.859Z,7.50
2023-04-25T03:23:31.359Z,7.60
2023-04-25T03:26:16.981Z,7.60
2023-04-25T03:29:02.669Z,7.60
2023-04-25T03:31:48.539Z,7.60
2023-04-25T03:34:34.300Z,7.60
2023-04-25T03:37:19.968Z,7.60
2023-04-25T03:40:07.205Z,7.70
2023-04-25T03:43:12.622Z,7.70
2023-04-25T03:46:02.192Z,7.70
2023-04-25T03:48:47.721Z,7.70
2023-04-25T03:51:39.765Z,7.70
2023-04-25T03:54:28.362Z,7.70
2023-04-25T03:57:18.482Z,7.70
2023-04-25T04:00:05.339Z,7.70
2023-04-25T04:03:01.524Z,7.70
2023-04-25T04:05:47.552Z,7.60
2023-04-25T04:08:33.775Z,7.60
2023-04-25T04:11:19.152Z,7.60
2023-04-25T04:14:07.736Z,7.60
2023-04-25T04:16:53.879Z,7.60
2023-04-25T04:19:40.069Z,7.60
2023-04-25T04:22:31.841Z,7.60
2023-04-25T04:25:21.386Z,7.60
2023-04-25T04:28:27.664Z,7.70
2023-04-25T04:31:40.832Z,7.70
2023-04-25T04:34:26.750Z,7.70
2023-04-25T04:37:14.553Z,7.70
2023-04-25T04:40:06.120Z,7.70
2023-04-25T04:43:11.665Z,7.70
2023-04-25T04:46:11.399Z,7.70
2023-04-25T04:49:19.926Z,7.60
2023-04-25T04:52:23.964Z,7.50
2023-04-25T04:55:22.945Z,7.50
2023-04-25T04:58:23.961Z,7.40
2023-04-25T05:01:39.040Z,7.30
2023-04-25T05:04:43.121Z,7.30
2023-04-25T05:07:44.396Z,7.40
2023-04-25T05:10:43.395Z,7.40
2023-04-25T05:13:42.564Z,7.40
2023-04-25T05:16:40.278Z,7.40
2023-04-25T05:19:44.747Z,7.40
2023-04-25T05:22:38.470Z,7.40
2023-04-25T05:25:31.524Z,7.40
2023-04-25T05:28:26.318Z,7.30
2023-04-25T05:31:23.149Z,7.30
2023-04-25T05:34:17.735Z,7.30
2023-04-25T05:37:10.050Z,7.50
2023-04-25T05:40:07.782Z,7.60
2023-04-25T05:43:09.718Z,7.70
2023-04-25T05:46:18.528Z,7.80
2023-04-25T05:49:24.372Z,7.90
2023-04-25T05:52:16.620Z,7.90
2023-04-25T05:55:07.306Z,7.90
2023-04-25T05:57:52.803Z,7.80
2023-04-25T06:00:39.022Z,7.80
2023-04-25T06:03:24.581Z,7.80
2023-04-25T06:06:12.418Z,7.80
2023-04-25T06:08:58.083Z,7.90
2023-04-25T06:11:44.023Z,7.90
2023-04-25T06:14:29.886Z,8.00
2023-04-25T06:17:18.288Z,8.00
2023-04-25T06:20:06.894Z,8.00
2023-04-25T06:22:53.641Z,8.00
2023-04-25T06:25:43.820Z,8.00
2023-04-25T06:28:30.581Z,7.90
2023-04-25T06:31:17.344Z,7.90
2023-04-25T06:34:04.407Z,7.90
2023-04-25T06:36:53.251Z,8.00
2023-04-25T06:39:44.522Z,8.00
2023-04-25T06:42:30.479Z,8.10
2023-04-25T06:45:17.978Z,8.10
2023-04-25T06:48:03.881Z,8.30
2023-04-25T06:50:49.327Z,8.40
2023-04-25T06:53:35.128Z,8.40
2023-04-25T06:56:22.903Z,8.50
2023-04-25T06:59:29.686Z,8.60
2023-04-25T07:02:15.597Z,8.80
2023-04-25T07:05:02.603Z,9.00
2023-04-25T07:07:48.192Z,9.10
2023-04-25T07:10:33.710Z,9.30
2023-04-25T07:13:19.421Z,9.40
2023-04-25T07:16:05.027Z,9.40
2023-04-25T07:18:52.814Z,9.60
2023-04-25T07:21:38.813Z,9.70
2023-04-25T07:24:26.052Z,9.70
2023-04-25T07:27:13.628Z,9.70
2023-04-25T07:30:10.374Z,9.70
2023-04-25T07:32:57.825Z,9.80
2023-04-25T07:35:47.820Z,9.90
2023-04-25T07:38:34.117Z,10.10
2023-04-25T07:41:19.768Z,10.20
2023-04-25T07:44:05.550Z,10.30
2023-04-25T07:46:52.604Z,10.50
2023-04-25T07:49:39.288Z,10.50
2023-04-25T07:52:24.921Z,10.60
2023-04-25T07:55:18.998Z,10.60
2023-04-25T07:58:24.319Z,10.70
2023-04-25T08:01:17.873Z,11.00
2023-04-25T08:04:09.115Z,11.20
2023-04-25T08:07:10.561Z,11.20
2023-04-25T08:10:04.751Z,11.20
2023-04-25T08:12:52.420Z,11.00
2023-04-25T08:15:38.070Z,10.90
2023-04-25T08:18:24.345Z,10.80
2023-04-25T08:21:12.408Z,10.70
2023-04-25T08:23:59.832Z,10.70
2023-04-25T08:26:49.114Z,10.70
2023-04-25T08:29:37.175Z,10.80
2023-04-25T08:32:22.475Z,11.00
2023-04-25T08:35:40.267Z,11.40
2023-04-25T08:38:26.136Z,11.60
2023-04-25T08:41:13.283Z,11.70
2023-04-25T08:44:01.340Z,11.70
2023-04-25T08:46:51.199Z,11.80
2023-04-25T08:49:48.002Z,11.70
2023-04-25T08:52:41.084Z,11.60
2023-04-25T08:55:27.856Z,11.50
2023-04-25T08:58:17.181Z,11.50
2023-04-25T09:01:03.041Z,11.60
2023-04-25T09:03:52.692Z,11.80
2023-04-25T09:06:39.195Z,12.00
2023-04-25T09:09:40.216Z,12.00
2023-04-25T09:12:26.405Z,12.00
2023-04-25T09:15:20.374Z,11.90
2023-04-25T09:18:12.904Z,11.60
2023-04-25T09:21:14.351Z,11.50
2023-04-25T09:24:02.499Z,11.30
2023-04-25T09:26:48.768Z,11.30
2023-04-25T09:29:37.274Z,11.10
2023-04-25T09:32:25.533Z,10.80
2023-04-25T09:35:25.982Z,10.50
2023-04-25T09:38:19.132Z,10.20
2023-04-25T09:41:30.492Z,10.00
2023-04-25T09:44:26.682Z,9.70
2023-04-25T09:47:16.793Z,9.40
2023-04-25T09:50:04.080Z,9.30
2023-04-25T09:53:06.503Z,9.30
2023-04-25T09:56:13.267Z,9.40
2023-04-25T09:58:58.917Z,9.40
2023-04-25T10:01:47.315Z,9.40
2023-04-25T10:04:45.808Z,9.50
2023-04-25T10:07:39.365Z,9.60
2023-04-25T10:10:31.455Z,9.70
2023-04-25T10:13:18.024Z,9.80
2023-04-25T10:16:06.047Z,10.00
2023-04-25T10:18:51.824Z,10.00
2023-04-25T10:21:42.327Z,10.10
2023-04-25T10:24:28.456Z,10.30
2023-04-25T10:27:14.409Z,10.50
2023-04-25T10:30:12.260Z,10.80
2023-04-25T10:33:00.847Z,11.10
2023-04-25T10:35:47.096Z,11.40
2023-04-25T10:38:33.634Z,11.70
2023-04-25T10:41:24.035Z,12.00
2023-04-25T10:44:10.138Z,12.40
2023-04-25T10:47:00.576Z,12.70
2023-04-25T10:49:45.922Z,13.00
2023-04-25T10:52:34.659Z,13.00
2023-04-25T10:55:21.556Z,12.90
2023-04-25T10:58:07.452Z,13.20
2023-04-25T11:00:57.510Z,13.40
2023-04-25T11:03:45.030Z,13.40
2023-04-25T11:06:43.993Z,13.10
2023-04-25T11:09:29.909Z,12.80
2023-04-25T11:12:16.115Z,12.80
2023-04-25T11:15:06.840Z,13.10
2023-04-25T11:17:53.631Z,13.70
2023-04-25T11:20:44.584Z,14.00
2023-04-25T11:23:32.792Z,13.80
2023-04-25T11:26:20.939Z,13.70
2023-04-25T11:29:06.142Z,14.50
2023-04-25T11:31:52.068Z,15.10
2023-04-25T11:34:37.310Z,15.40
2023-04-25T11:37:23.209Z,16.10
2023-04-25T11:40:10.700Z,17.30
2023-04-25T11:42:58.787Z,18.40
2023-04-25T11:45:48.247Z,19.60
2023-04-25T11:48:41.936Z,20.10
2023-04-25T11:51:28.069Z,20.20
2023-04-25T11:54:13.982Z,21.10
2023-04-25T11:56:59.584Z,22.00
2023-04-25T11:59:45.345Z,21.70
2023-04-25T12:02:33.448Z,21.20
2023-04-25T12:05:31.215Z,21.30
2023-04-25T12:08:18.709Z,21.90
2023-04-25T12:11:04.359Z,21.50
2023-04-25T12:13:54.386Z,22.30
2023-04-25T12:16:46.814Z,22.70
2023-04-25T12:19:37.278Z,23.10
2023-04-25T12:22:24.963Z,22.90
2023-04-25T12:25:10.632Z,23.50
2023-04-25T12:27:56.269Z,24.30
2023-04-25T12:31:07.205Z,25.50
2023-04-25T12:33:52.894Z,26.50
2023-04-25T12:36:38.422Z,27.30
2023-04-25T12:39:26.105Z,28.20
2023-04-25T12:42:14.303Z,27.70
2023-04-25T12:44:59.776Z,25.60
2023-04-25T12:47:45.511Z,23.80
2023-04-25T12:50:32.360Z,22.30
2023-04-25T12:53:19.169Z,21.30
2023-04-25T12:56:04.940Z,21.20
2023-04-25T12:58:50.626Z,22.30
2023-04-25T13:01:36.651Z,23.70
2023-04-25T13:04:22.662Z,24.70
2023-04-25T13:07:09.573Z,25.80
2023-04-25T13:09:55.425Z,25.90
2023-04-25T13:12:41.152Z,24.50
2023-04-25T13:15:26.929Z,23.80
2023-04-25T13:18:12.499Z,23.40
2023-04-25T13:20:58.742Z,24.70
2023-04-25T13:23:45.737Z,26.20
2023-04-25T13:26:33.787Z,27.40
2023-04-25T13:29:25.401Z,28.50
2023-04-25T13:32:10.971Z,28.10
2023-04-25T13:34:57.624Z,28.30
2023-04-25T13:37:43.537Z,26.40
2023-04-25T13:40:37.431Z,24.10
2023-04-25T13:43:23.856Z,22.10
2023-04-25T13:46:16.550Z,20.10
2023-04-25T13:49:13.280Z,20.70
2023-04-25T13:51:59.101Z,22.60
2023-04-25T13:54:44.297Z,23.30
2023-04-25T13:57:29.565Z,23.30
2023-04-25T14:00:16.415Z,23.20
2023-04-25T14:03:01.960Z,22.90
2023-04-25T14:05:48.001Z,22.50
2023-04-25T14:08:33.549Z,22.60
2023-04-25T14:11:19.992Z,23.40
2023-04-25T14:14:05.458Z,22.60
2023-04-25T14:16:51.722Z,24.10
2023-04-25T14:19:47.358Z,23.10
2023-04-25T14:22:34.200Z,22.20
2023-04-25T14:25:22.112Z,21.70
2023-04-25T14:28:07.737Z,21.00
2023-04-25T14:30:53.164Z,20.20
2023-04-25T14:33:42.795Z,19.50
2023-04-25T14:36:30.964Z,20.60
2023-04-25T14:39:18.179Z,22.90
2023-04-25T14:42:04.670Z,24.90
2023-04-25T14:44:50.046Z,27.00
2023-04-25T14:47:38.591Z,28.80
2023-04-25T14:50:24.176Z,30.30
2023-04-25T14:53:09.439Z,30.00
2023-04-25T14:55:55.043Z,28.50
2023-04-25T14:58:41.343Z,29.10
2023-04-25T15:01:26.958Z,30.20
2023-04-25T15:04:18.479Z,30.00
2023-04-25T15:07:04.905Z,30.90
2023-04-25T15:09:50.143Z,31.70
2023-04-25T15:12:35.557Z,31.40
2023-04-25T15:15:26.582Z,31.20
2023-04-25T15:18:12.446Z,30.90
2023-04-25T15:20:57.727Z,31.10
2023-04-25T15:23:42.879Z,28.80
2023-04-25T15:26:28.856Z,26.80
2023-04-25T15:29:14.154Z,26.10
2023-04-25T15:31:59.502Z,27.90
2023-04-25T15:34:44.896Z,29.60
2023-04-25T15:37:31.244Z,30.50
2023-04-25T15:40:17.887Z,31.30
2023-04-25T15:43:03.359Z,31.90
2023-04-25T15:45:51.253Z,31.70
2023-04-25T15:48:36.808Z,31.80
2023-04-25T15:51:22.368Z,31.60
2023-04-25T15:54:08.137Z,31.70
2023-04-25T15:56:53.698Z,31.90
2023-04-25T15:59:39.223Z,31.10
2023-04-25T16:02:25.068Z,29.60
2023-04-25T16:05:14.651Z,30.00
2023-04-25T16:08:03.193Z,30.90
2023-04-25T16:10:49.186Z,31.50
2023-04-25T16:13:37.663Z,31.90
2023-04-25T16:16:23.159Z,31.30
2023-04-25T16:19:08.307Z,30.60
2023-04-25T16:21:54.297Z,31.10
2023-04-25T16:24:39.778Z,29.10
2023-04-25T16:27:25.693Z,26.60
2023-04-25T16:30:11.635Z,24.70
2023-04-25T16:33:06.325Z,24.50
2023-04-25T16:35:52.792Z,25.80
2023-04-25T16:38:39.788Z,24.00
2023-04-25T16:41:25.407Z,22.40
2023-04-25T16:44:11.348Z,20.90
2023-04-25T16:46:57.142Z,19.90
2023-04-25T16:49:42.600Z,19.30
2023-04-25T16:52:27.940Z,19.20
2023-04-25T16:55:13.210Z,18.70
2023-04-25T16:57:58.708Z,18.00
2023-04-25T17:00:44.890Z,17.60
2023-04-25T17:03:31.296Z,17.20
2023-04-25T17:06:23.650Z,16.90
2023-04-25T17:09:08.931Z,16.30
2023-04-25T17:11:54.523Z,15.80
2023-04-25T17:14:40.024Z,16.10
2023-04-25T17:17:26.701Z,17.30
2023-04-25T17:20:13.732Z,16.70
2023-04-25T17:22:59.878Z,16.00
2023-04-25T17:25:45.633Z,15.40
2023-04-25T17:28:31.119Z,14.80
2023-04-25T17:31:17.602Z,14.40
2023-04-25T17:34:04.278Z,14.80
2023-04-25T17:36:52.628Z,16.30
2023-04-25T17:39:38.027Z,17.30
2023-04-25T17:42:23.852Z,18.60
2023-04-25T17:45:09.621Z,19.00
2023-04-25T17:47:55.061Z,19.30
2023-04-25T17:50:40.764Z,19.60
2023-04-25T17:53:26.126Z,19.80
2023-04-25T17:56:19.799Z,19.90
2023-04-25T17:59:11.550Z,19.90
2023-04-25T18:01:59.944Z,19.60
2023-04-25T18:04:46.933Z,19.30
2023-04-25T18:07:32.574Z,19.10
2023-04-25T18:10:17.842Z,18.80
2023-04-25T18:13:03.581Z,18.10
2023-04-25T18:15:51.606Z,17.80
2023-04-25T18:18:37.878Z,17.50
2023-04-25T18:21:22.880Z,17.20
2023-04-25T18:24:10.111Z,16.70
2023-04-25T18:26:56.746Z,16.00
2023-04-25T18:29:44.039Z,15.10
2023-04-25T18:32:29.733Z,14.40
2023-04-25T18:35:15.179Z,13.90
2023-04-25T18:38:00.253Z,13.40
2023-04-25T18:40:56.685Z,12.90
2023-04-25T18:43:45.526Z,12.40
2023-04-25T18:46:35.006Z,12.00
2023-04-25T18:49:20.355Z,11.50
2023-04-25T18:52:10.428Z,11.20
2023-04-25T18:54:55.457Z,10.90
2023-04-25T18:57:40.880Z,10.60
2023-04-25T19:00:29.052Z,10.30
2023-04-25T19:03:14.535Z,10.10
2023-04-25T19:06:01.101Z,9.80
2023-04-25T19:08:46.108Z,9.50
2023-04-25T19:11:31.534Z,9.30
2023-04-25T19:14:16.951Z,9.10
2023-04-25T19:17:02.281Z,8.90
2023-04-25T19:19:47.955Z,8.70
2023-04-25T19:22:33.530Z,8.60
2023-04-25T19:25:18.684Z,8.50
2023-04-25T19:28:04.075Z,8.40
2023-04-25T19:30:49.644Z,8.30
2023-04-25T19:33:35.085Z,8.10
2023-04-25T19:36:22.357Z,8.00
2023-04-25T19:39:08.601Z,7.90
2023-04-25T19:41:54.587Z,7.70
2023-04-25T19:44:40.140Z,7.60
2023-04-25T19:47:28.020Z,7.50
2023-04-25T19:50:13.921Z,7.40
2023-04-25T19:52:59.192Z,7.40
2023-04-25T19:55:44.691Z,7.30
2023-04-25T19:58:30.743Z,7.20
2023-04-25T20:01:17.128Z,7.10
2023-04-25T20:04:03.121Z,7.10
2023-04-25T20:06:50.170Z,7.00
2023-04-25T20:09:35.454Z,6.90
2023-04-25T20:12:20.956Z,6.80
2023-04-25T20:15:08.658Z,6.80
2023-04-25T20:17:54.404Z,6.70
2023-04-25T20:20:40.426Z,6.60
2023-04-25T20:23:27.007Z,6.60
2023-04-25T20:26:12.955Z,6.50
2023-04-25T20:28:58.594Z,6.40
2023-04-25T20:31:49.733Z,6.40
2023-04-25T20:34:35.595Z,6.30
2023-04-25T20:37:21.344Z,6.30
2023-04-25T20:40:09.008Z,6.30
2023-04-25T20:42:56.107Z,6.20
2023-04-25T20:45:41.643Z,6.20
2023-04-25T20:48:27.531Z,6.10
2023-04-25T20:51:15.596Z,6.10
2023-04-25T20:54:03.865Z,6.00
2023-04-25T20:56:50.432Z,6.00
2023-04-25T20:59:35.900Z,5.90
2023-04-25T21:02:21.603Z,5.90
2023-04-25T21:05:07.157Z,5.90
2023-04-25T21:07:52.341Z,5.90
2023-04-25T21:10:43.529Z,5.80
2023-04-25T21:13:29.201Z,5.80
2023-04-25T21:16:14.494Z,5.80
2023-04-25T21:19:02.084Z,5.80
2023-04-25T21:21:47.480Z,5.80
2023-04-25T21:24:36.576Z,5.80
2023-04-25T21:27:22.729Z,5.80
2023-04-25T21:30:08.581Z,5.80
2023-04-25T21:32:54.946Z,5.80
2023-04-25T21:35:40.594Z,5.80
2023-04-25T21:38:27.701Z,5.70
2023-04-25T21:41:14.552Z,5.80
2023-04-25T21:44:00.584Z,5.80
2023-04-25T21:46:47.385Z,5.70
2023-04-25T21:49:33.382Z,5.70
2023-04-25T21:52:19.971Z,5.70
2023-04-25T21:55:06.049Z,5.70
2023-04-25T21:57:51.752Z,5.70
2023-04-25T22:00:39.657Z,5.70
2023-04-25T22:03:25.444Z,5.70
2023-04-25T22:06:10.853Z,5.70
2023-04-25T22:08:56.949Z,5.70
2023-04-25T22:11:44.232Z,5.70
2023-04-25T22:14:34.151Z,5.70
2023-04-25T22:17:26.094Z,5.70
2023-04-25T22:20:14.372Z,5.80
2023-04-25T22:22:59.776Z,5.70
2023-04-25T22:25:46.420Z,5.80
2023-04-25T22:28:33.108Z,5.80
2023-04-25T22:31:20.094Z,5.90
2023-04-25T22:34:11.253Z,6.00
2023-04-25T22:36:59.712Z,6.10
2023-04-25T22:39:45.842Z,6.10
2023-04-25T22:42:39.920Z,6.20
2023-04-25T22:45:25.158Z,6.20
2023-04-25T22:48:11.216Z,6.20
2023-04-25T22:51:05.160Z,6.10
2023-04-25T22:53:51.696Z,6.10
2023-04-25T22:56:37.974Z,6.00
2023-04-25T22:59:24.366Z,5.90
2023-04-25T23:02:10.640Z,5.80
2023-04-25T23:04:56.020Z,5.80
2023-04-25T23:07:44.480Z,5.70
2023-04-25T23:10:33.869Z,5.60
2023-04-25T23:13:19.384Z,5.60
2023-04-25T23:16:09.404Z,5.50
2023-04-25T23:18:55.273Z,5.40
2023-04-25T23:21:43.249Z,5.40
2023-04-25T23:24:31.220Z,5.40
2023-04-25T23:27:17.566Z,5.40
2023-04-25T23:30:03.333Z,5.40
2023-04-25T23:32:48.554Z,5.40
2023-04-25T23:35:36.946Z,5.30
2023-04-25T23:38:22.568Z,5.20
2023-04-25T23:41:07.922Z,5.20
2023-04-25T23:43:56.029Z,5.20
2023-04-25T23:46:42.618Z,5.20
2023-04-25T23:49:28.205Z,5.10
2023-04-25T23:52:13.462Z,5.10
2023-04-25T23:54:59.168Z,5.10
2023-04-25T23:57:44.719Z,5.10
